sensor_id;sensor_type;location;lat;lon;timestamp;temperature;humidity
36442;DHT22;64346;50.820;16.274;2023-07-30T00:00:11;15.40;99.90
36442;DHT22;64346;50.820;16.274;2023-07-30T00:03:03;15.50;99.90
36442;DHT22;64346;50.820;16.274;2023-07-30T00:05:31;15.60;99.90
36442;DHT22;64346;50.820;16.274;2023-07-30T00:07:58;15.70;99.90
36442;DHT22;64346;50.820;16.274;2023-07-30T00:10:26;15.70;99.90
36442;DHT22;64346;50.820;16.274;2023-07-30T00:12:53;15.70;99.90
36442;DHT22;64346;50.820;16.274;2023-07-30T00:15:20;15.80;99.90
36442;DHT22;64346;50.820;16.274;2023-07-30T00:17:47;15.80;99.90
36442;DHT22;64346;50.820;16.274;2023-07-30T00:20:15;15.90;99.90
36442;DHT22;64346;50.820;16.274;2023-07-30T00:22:42;15.90;99.90
36442;DHT22;64346;50.820;16.274;2023-07-30T00:25:10;15.90;99.90
36442;DHT22;64346;50.820;16.274;2023-07-30T00:27:37;16.00;99.90
36442;DHT22;64346;50.820;16.274;2023-07-30T00:30:05;16.00;99.90
36442;DHT22;64346;50.820;16.274;2023-07-30T00:32:32;16.00;99.90
36442;DHT22;64346;50.820;16.274;2023-07-30T00:35:00;16.10;99.90
36442;DHT22;64346;50.820;16.274;2023-07-30T00:37:27;16.00;99.90
36442;DHT22;64346;50.820;16.274;2023-07-30T00:39:55;16.10;99.90
36442;DHT22;64346;50.820;16.274;2023-07-30T00:42:24;16.10;99.90
36442;DHT22;64346;50.820;16.274;2023-07-30T00:44:56;16.10;99.90
36442;DHT22;64346;50.820;16.274;2023-07-30T00:47:23;16.10;99.90
36442;DHT22;64346;50.820;16.274;2023-07-30T00:49:51;16.10;99.90
36442;DHT22;64346;50.820;16.274;2023-07-30T00:52:22;16.10;99.90
36442;DHT22;64346;50.820;16.274;2023-07-30T00:54:51;16.00;99.90
36442;DHT22;64346;50.820;16.274;2023-07-30T00:57:22;16.00;99.90
36442;DHT22;64346;50.820;16.274;2023-07-30T00:59:50;16.00;99.90
36442;DHT22;64346;50.820;16.274;2023-07-30T01:02:18;15.90;99.90
36442;DHT22;64346;50.820;16.274;2023-07-30T01:04:46;15.90;99.90
36442;DHT22;64346;50.820;16.274;2023-07-30T01:07:13;15.80;99.90
36442;DHT22;64346;50.820;16.274;2023-07-30T01:09:41;15.70;99.90
36442;DHT22;64346;50.820;16.274;2023-07-30T01:12:09;15.70;99.90
36442;DHT22;64346;50.820;16.274;2023-07-30T01:14:36;15.70;99.90
36442;DHT22;64346;50.820;16.274;2023-07-30T01:17:06;15.70;99.90
36442;DHT22;64346;50.820;16.274;2023-07-30T01:19:36;15.60;99.90
36442;DHT22;64346;50.820;16.274;2023-07-30T01:22:03;15.60;99.90
36442;DHT22;64346;50.820;16.274;2023-07-30T01:24:31;15.50;99.90
36442;DHT22;64346;50.820;16.274;2023-07-30T01:27:08;15.50;99.90
36442;DHT22;64346;50.820;16.274;2023-07-30T01:30:18;15.50;99.90
36442;DHT22;64346;50.820;16.274;2023-07-30T01:32:52;15.50;99.90
36442;DHT22;64346;50.820;16.274;2023-07-30T01:35:26;15.40;99.90
36442;DHT22;64346;50.820;16.274;2023-07-30T01:37:56;15.40;99.90
36442;DHT22;64346;50.820;16.274;2023-07-30T01:40:24;15.40;99.90
36442;DHT22;64346;50.820;16.274;2023-07-30T01:42:52;15.30;99.90
36442;DHT22;64346;50.820;16.274;2023-07-30T01:45:20;15.30;99.90
36442;DHT22;64346;50.820;16.274;2023-07-30T01:47:49;15.30;99.90
36442;DHT22;64346;50.820;16.274;2023-07-30T01:50:18;15.30;99.90
36442;DHT22;64346;50.820;16.274;2023-07-30T01:52:48;15.30;99.90
36442;DHT22;64346;50.820;16.274;2023-07-30T01:55:16;15.30;99.90
36442;DHT22;64346;50.820;16.274;2023-07-30T01:57:43;15.40;99.90
36442;DHT22;64346;50.820;16.274;2023-07-30T02:00:13;15.30;99.90
36442;DHT22;64346;50.820;16.274;2023-07-30T02:02:40;15.30;99.90
36442;DHT22;64346;50.820;16.274;2023-07-30T02:05:08;15.30;99.90
36442;DHT22;64346;50.820;16.274;2023-07-30T02:07:37;15.20;99.90
36442;DHT22;64346;50.820;16.274;2023-07-30T02:10:05;15.20;99.90
36442;DHT22;64346;50.820;16.274;2023-07-30T02:12:32;15.20;99.90
36442;DHT22;64346;50.820;16.274;2023-07-30T02:15:02;15.20;99.90
36442;DHT22;64346;50.820;16.274;2023-07-30T02:17:32;15.20;99.90
36442;DHT22;64346;50.820;16.274;2023-07-30T02:19:59;15.20;99.90
36442;DHT22;64346;50.820;16.274;2023-07-30T02:22:26;15.20;99.90
36442;DHT22;64346;50.820;16.274;2023-07-30T02:24:54;15.20;99.90
36442;DHT22;64346;50.820;16.274;2023-07-30T02:27:24;15.20;99.90
36442;DHT22;64346;50.820;16.274;2023-07-30T02:29:54;15.20;99.90
36442;DHT22;64346;50.820;16.274;2023-07-30T02:32:21;15.20;99.90
36442;DHT22;64346;50.820;16.274;2023-07-30T02:34:49;15.20;99.90
36442;DHT22;64346;50.820;16.274;2023-07-30T02:37:16;15.20;99.90
36442;DHT22;64346;50.820;16.274;2023-07-30T02:39:46;15.10;99.90
36442;DHT22;64346;50.820;16.274;2023-07-30T02:42:13;15.20;99.90
36442;DHT22;64346;50.820;16.274;2023-07-30T02:44:40;15.20;99.90
36442;DHT22;64346;50.820;16.274;2023-07-30T02:47:07;15.20;99.90
36442;DHT22;64346;50.820;16.274;2023-07-30T02:49:35;15.20;99.90
36442;DHT22;64346;50.820;16.274;2023-07-30T02:52:02;15.20;99.90
36442;DHT22;64346;50.820;16.274;2023-07-30T02:54:29;15.20;99.90
36442;DHT22;64346;50.820;16.274;2023-07-30T02:56:56;15.20;99.90
36442;DHT22;64346;50.820;16.274;2023-07-30T02:59:24;15.10;99.90
36442;DHT22;64346;50.820;16.274;2023-07-30T03:01:53;15.10;99.90
36442;DHT22;64346;50.820;16.274;2023-07-30T03:04:21;15.00;99.90
36442;DHT22;64346;50.820;16.274;2023-07-30T03:06:52;15.00;99.90
36442;DHT22;64346;50.820;16.274;2023-07-30T03:09:22;15.00;99.90
36442;DHT22;64346;50.820;16.274;2023-07-30T03:11:50;15.00;99.90
36442;DHT22;64346;50.820;16.274;2023-07-30T03:14:18;15.00;99.90
36442;DHT22;64346;50.820;16.274;2023-07-30T03:16:45;14.90;99.90
36442;DHT22;64346;50.820;16.274;2023-07-30T03:19:13;14.90;99.90
36442;DHT22;64346;50.820;16.274;2023-07-30T03:21:40;14.90;99.90
36442;DHT22;64346;50.820;16.274;2023-07-30T03:24:08;14.80;99.90
36442;DHT22;64346;50.820;16.274;2023-07-30T03:26:37;14.80;99.90
36442;DHT22;64346;50.820;16.274;2023-07-30T03:29:05;14.80;99.90
36442;DHT22;64346;50.820;16.274;2023-07-30T03:31:35;14.90;99.90
36442;DHT22;64346;50.820;16.274;2023-07-30T03:34:03;15.00;99.90
36442;DHT22;64346;50.820;16.274;2023-07-30T03:36:30;15.00;99.90
36442;DHT22;64346;50.820;16.274;2023-07-30T03:38:57;15.10;99.90
36442;DHT22;64346;50.820;16.274;2023-07-30T03:41:25;15.20;99.90
36442;DHT22;64346;50.820;16.274;2023-07-30T03:43:52;15.30;99.90
36442;DHT22;64346;50.820;16.274;2023-07-30T03:46:27;15.40;99.90
36442;DHT22;64346;50.820;16.274;2023-07-30T03:48:54;15.50;99.90
36442;DHT22;64346;50.820;16.274;2023-07-30T03:51:22;15.60;99.90
36442;DHT22;64346;50.820;16.274;2023-07-30T03:53:49;15.70;99.90
36442;DHT22;64346;50.820;16.274;2023-07-30T03:56:18;15.70;99.90
36442;DHT22;64346;50.820;16.274;2023-07-30T03:58:46;15.80;99.90
36442;DHT22;64346;50.820;16.274;2023-07-30T04:01:15;15.90;99.90
36442;DHT22;64346;50.820;16.274;2023-07-30T04:03:43;16.00;99.90
36442;DHT22;64346;50.820;16.274;2023-07-30T04:06:10;16.30;99.90
36442;DHT22;64346;50.820;16.274;2023-07-30T04:08:40;16.50;99.90
36442;DHT22;64346;50.820;16.274;2023-07-30T04:11:07;16.80;99.90
36442;DHT22;64346;50.820;16.274;2023-07-30T04:13:34;17.10;99.90
36442;DHT22;64346;50.820;16.274;2023-07-30T04:16:04;17.30;99.90
36442;DHT22;64346;50.820;16.274;2023-07-30T04:18:37;17.60;99.90
36442;DHT22;64346;50.820;16.274;2023-07-30T04:21:04;17.70;99.90
36442;DHT22;64346;50.820;16.274;2023-07-30T04:23:31;17.90;99.90
36442;DHT22;64346;50.820;16.274;2023-07-30T04:25:58;18.00;99.90
36442;DHT22;64346;50.820;16.274;2023-07-30T04:28:26;18.20;99.90
36442;DHT22;64346;50.820;16.274;2023-07-30T04:30:58;18.40;99.90
36442;DHT22;64346;50.820;16.274;2023-07-30T04:33:28;18.70;99.90
36442;DHT22;64346;50.820;16.274;2023-07-30T04:35:55;18.90;99.90
36442;DHT22;64346;50.820;16.274;2023-07-30T04:38:24;19.30;99.90
36442;DHT22;64346;50.820;16.274;2023-07-30T04:40:52;19.60;99.90
36442;DHT22;64346;50.820;16.274;2023-07-30T04:43:19;19.90;99.90
36442;DHT22;64346;50.820;16.274;2023-07-30T04:45:46;20.20;99.90
36442;DHT22;64346;50.820;16.274;2023-07-30T04:48:14;20.50;99.90
36442;DHT22;64346;50.820;16.274;2023-07-30T04:50:41;20.90;99.90
36442;DHT22;64346;50.820;16.274;2023-07-30T04:53:08;21.10;99.90
36442;DHT22;64346;50.820;16.274;2023-07-30T04:55:36;21.30;99.90
36442;DHT22;64346;50.820;16.274;2023-07-30T04:58:03;21.60;99.90
36442;DHT22;64346;50.820;16.274;2023-07-30T05:00:30;21.80;99.90
36442;DHT22;64346;50.820;16.274;2023-07-30T05:02:58;22.00;99.90
36442;DHT22;64346;50.820;16.274;2023-07-30T05:05:25;22.20;99.90
36442;DHT22;64346;50.820;16.274;2023-07-30T05:07:55;22.30;99.90
36442;DHT22;64346;50.820;16.274;2023-07-30T05:10:22;22.60;99.90
36442;DHT22;64346;50.820;16.274;2023-07-30T05:12:51;22.80;99.90
36442;DHT22;64346;50.820;16.274;2023-07-30T05:15:19;23.00;99.90
36442;DHT22;64346;50.820;16.274;2023-07-30T05:17:46;23.20;99.90
36442;DHT22;64346;50.820;16.274;2023-07-30T05:20:13;23.40;99.90
36442;DHT22;64346;50.820;16.274;2023-07-30T05:22:43;23.70;99.90
36442;DHT22;64346;50.820;16.274;2023-07-30T05:25:10;23.90;99.90
36442;DHT22;64346;50.820;16.274;2023-07-30T05:27:43;24.10;99.90
36442;DHT22;64346;50.820;16.274;2023-07-30T05:30:10;24.50;99.90
36442;DHT22;64346;50.820;16.274;2023-07-30T05:32:38;24.80;99.90
36442;DHT22;64346;50.820;16.274;2023-07-30T05:35:05;25.20;99.90
36442;DHT22;64346;50.820;16.274;2023-07-30T05:37:35;25.60;99.90
36442;DHT22;64346;50.820;16.274;2023-07-30T05:40:03;26.10;99.90
36442;DHT22;64346;50.820;16.274;2023-07-30T05:42:32;26.80;99.90
36442;DHT22;64346;50.820;16.274;2023-07-30T05:44:59;27.40;99.60
36442;DHT22;64346;50.820;16.274;2023-07-30T05:47:27;28.20;97.80
36442;DHT22;64346;50.820;16.274;2023-07-30T05:49:54;29.10;95.20
36442;DHT22;64346;50.820;16.274;2023-07-30T05:52:22;30.00;92.70
36442;DHT22;64346;50.820;16.274;2023-07-30T05:54:49;31.00;90.30
36442;DHT22;64346;50.820;16.274;2023-07-30T05:57:16;31.70;86.80
36442;DHT22;64346;50.820;16.274;2023-07-30T05:59:43;32.70;83.00
36442;DHT22;64346;50.820;16.274;2023-07-30T06:02:11;33.70;78.60
36442;DHT22;64346;50.820;16.274;2023-07-30T06:04:40;34.50;75.10
36442;DHT22;64346;50.820;16.274;2023-07-30T06:07:08;35.40;72.10
36442;DHT22;64346;50.820;16.274;2023-07-30T06:09:37;36.10;69.40
36442;DHT22;64346;50.820;16.274;2023-07-30T06:12:07;36.10;69.10
36442;DHT22;64346;50.820;16.274;2023-07-30T06:14:36;36.80;67.40
36442;DHT22;64346;50.820;16.274;2023-07-30T06:17:04;37.80;65.30
36442;DHT22;64346;50.820;16.274;2023-07-30T06:19:34;38.40;63.50
36442;DHT22;64346;50.820;16.274;2023-07-30T06:22:04;39.50;61.70
36442;DHT22;64346;50.820;16.274;2023-07-30T06:24:36;40.20;60.40
36442;DHT22;64346;50.820;16.274;2023-07-30T06:27:06;40.80;59.00
36442;DHT22;64346;50.820;16.274;2023-07-30T06:29:33;40.90;57.80
36442;DHT22;64346;50.820;16.274;2023-07-30T06:32:01;41.10;57.40
36442;DHT22;64346;50.820;16.274;2023-07-30T06:34:28;41.20;57.00
36442;DHT22;64346;50.820;16.274;2023-07-30T06:36:58;40.80;56.40
36442;DHT22;64346;50.820;16.274;2023-07-30T06:39:27;40.90;56.50
36442;DHT22;64346;50.820;16.274;2023-07-30T06:41:59;40.80;56.20
36442;DHT22;64346;50.820;16.274;2023-07-30T06:44:28;40.50;56.00
36442;DHT22;64346;50.820;16.274;2023-07-30T06:47:01;39.80;56.70
36442;DHT22;64346;50.820;16.274;2023-07-30T06:49:29;39.10;57.60
36442;DHT22;64346;50.820;16.274;2023-07-30T06:51:56;38.80;58.50
36442;DHT22;64346;50.820;16.274;2023-07-30T06:54:28;38.70;58.50
36442;DHT22;64346;50.820;16.274;2023-07-30T06:56:58;38.50;58.60
36442;DHT22;64346;50.820;16.274;2023-07-30T06:59:28;38.50;58.90
36442;DHT22;64346;50.820;16.274;2023-07-30T07:01:55;38.80;58.50
36442;DHT22;64346;50.820;16.274;2023-07-30T07:04:23;38.50;58.60
36442;DHT22;64346;50.820;16.274;2023-07-30T07:06:50;37.30;59.70
36442;DHT22;64346;50.820;16.274;2023-07-30T07:09:18;35.90;61.20
36442;DHT22;64346;50.820;16.274;2023-07-30T07:11:48;35.00;62.50
36442;DHT22;64346;50.820;16.274;2023-07-30T07:14:33;34.80;63.20
36442;DHT22;64346;50.820;16.274;2023-07-30T07:17:04;35.20;63.30
36442;DHT22;64346;50.820;16.274;2023-07-30T07:19:34;36.10;62.50
36442;DHT22;64346;50.820;16.274;2023-07-30T07:22:01;36.80;60.80
36442;DHT22;64346;50.820;16.274;2023-07-30T07:24:29;36.20;60.90
36442;DHT22;64346;50.820;16.274;2023-07-30T07:26:56;35.20;61.30
36442;DHT22;64346;50.820;16.274;2023-07-30T07:29:27;34.30;62.30
36442;DHT22;64346;50.820;16.274;2023-07-30T07:31:55;34.20;63.60
36442;DHT22;64346;50.820;16.274;2023-07-30T07:34:22;34.90;63.10
36442;DHT22;64346;50.820;16.274;2023-07-30T07:36:49;36.30;61.40
36442;DHT22;64346;50.820;16.274;2023-07-30T07:39:16;36.60;60.20
36442;DHT22;64346;50.820;16.274;2023-07-30T07:41:44;35.60;60.70
36442;DHT22;64346;50.820;16.274;2023-07-30T07:44:11;34.40;61.90
36442;DHT22;64346;50.820;16.274;2023-07-30T07:46:38;33.60;64.20
36442;DHT22;64346;50.820;16.274;2023-07-30T07:49:06;32.80;65.30
36442;DHT22;64346;50.820;16.274;2023-07-30T07:51:35;32.70;65.80
36442;DHT22;64346;50.820;16.274;2023-07-30T07:54:03;33.70;65.70
36442;DHT22;64346;50.820;16.274;2023-07-30T07:56:31;35.50;63.60
36442;DHT22;64346;50.820;16.274;2023-07-30T07:58:58;36.80;61.30
36442;DHT22;64346;50.820;16.274;2023-07-30T08:01:26;37.40;60.40
36442;DHT22;64346;50.820;16.274;2023-07-30T08:03:55;37.60;59.50
36442;DHT22;64346;50.820;16.274;2023-07-30T08:06:23;37.80;58.70
36442;DHT22;64346;50.820;16.274;2023-07-30T08:08:50;37.30;59.10
36442;DHT22;64346;50.820;16.274;2023-07-30T08:11:20;36.70;59.80
36442;DHT22;64346;50.820;16.274;2023-07-30T08:13:50;37.10;60.00
36442;DHT22;64346;50.820;16.274;2023-07-30T08:16:18;37.90;59.00
36442;DHT22;64346;50.820;16.274;2023-07-30T08:18:47;38.80;57.70
36442;DHT22;64346;50.820;16.274;2023-07-30T08:21:17;39.50;56.60
36442;DHT22;64346;50.820;16.274;2023-07-30T08:23:46;40.20;56.00
36442;DHT22;64346;50.820;16.274;2023-07-30T08:26:13;40.10;56.10
36442;DHT22;64346;50.820;16.274;2023-07-30T08:28:40;39.90;56.00
36442;DHT22;64346;50.820;16.274;2023-07-30T08:31:10;40.00;56.20
36442;DHT22;64346;50.820;16.274;2023-07-30T08:33:37;40.60;55.60
36442;DHT22;64346;50.820;16.274;2023-07-30T08:36:07;40.70;55.50
36442;DHT22;64346;50.820;16.274;2023-07-30T08:38:39;39.80;54.10
36442;DHT22;64346;50.820;16.274;2023-07-30T08:41:15;39.20;55.00
36442;DHT22;64346;50.820;16.274;2023-07-30T08:43:42;38.40;56.00
36442;DHT22;64346;50.820;16.274;2023-07-30T08:46:11;37.70;57.20
36442;DHT22;64346;50.820;16.274;2023-07-30T08:48:38;37.20;57.40
36442;DHT22;64346;50.820;16.274;2023-07-30T08:51:05;36.00;58.00
36442;DHT22;64346;50.820;16.274;2023-07-30T08:53:36;35.50;58.80
36442;DHT22;64346;50.820;16.274;2023-07-30T08:56:05;36.10;58.90
36442;DHT22;64346;50.820;16.274;2023-07-30T08:58:47;37.50;56.80
36442;DHT22;64346;50.820;16.274;2023-07-30T09:01:16;38.10;56.00
36442;DHT22;64346;50.820;16.274;2023-07-30T09:03:47;38.20;55.30
36442;DHT22;64346;50.820;16.274;2023-07-30T09:06:16;36.80;56.80
36442;DHT22;64346;50.820;16.274;2023-07-30T09:08:44;35.80;58.20
36442;DHT22;64346;50.820;16.274;2023-07-30T09:11:13;35.40;59.20
36442;DHT22;64346;50.820;16.274;2023-07-30T09:13:45;35.30;59.70
36442;DHT22;64346;50.820;16.274;2023-07-30T09:16:17;34.80;59.00
36442;DHT22;64346;50.820;16.274;2023-07-30T09:18:48;33.80;60.40
36442;DHT22;64346;50.820;16.274;2023-07-30T09:21:18;32.90;61.80
36442;DHT22;64346;50.820;16.274;2023-07-30T09:23:47;32.50;63.00
36442;DHT22;64346;50.820;16.274;2023-07-30T09:26:15;32.20;63.80
36442;DHT22;64346;50.820;16.274;2023-07-30T09:28:42;31.80;64.20
36442;DHT22;64346;50.820;16.274;2023-07-30T09:31:12;31.70;64.90
36442;DHT22;64346;50.820;16.274;2023-07-30T09:33:59;31.70;65.20
36442;DHT22;64346;50.820;16.274;2023-07-30T09:36:26;31.70;66.30
36442;DHT22;64346;50.820;16.274;2023-07-30T09:38:53;31.90;65.80
36442;DHT22;64346;50.820;16.274;2023-07-30T09:41:21;32.20;65.80
36442;DHT22;64346;50.820;16.274;2023-07-30T09:43:58;32.50;65.30
36442;DHT22;64346;50.820;16.274;2023-07-30T09:46:29;32.60;64.50
36442;DHT22;64346;50.820;16.274;2023-07-30T09:48:56;32.70;64.40
36442;DHT22;64346;50.820;16.274;2023-07-30T09:51:28;32.80;64.70
36442;DHT22;64346;50.820;16.274;2023-07-30T09:53:56;32.50;64.60
36442;DHT22;64346;50.820;16.274;2023-07-30T09:56:23;32.40;65.00
36442;DHT22;64346;50.820;16.274;2023-07-30T09:58:51;32.10;64.50
36442;DHT22;64346;50.820;16.274;2023-07-30T10:01:22;31.90;65.40
36442;DHT22;64346;50.820;16.274;2023-07-30T10:03:51;31.70;65.30
36442;DHT22;64346;50.820;16.274;2023-07-30T10:06:22;31.60;66.30
36442;DHT22;64346;50.820;16.274;2023-07-30T10:08:51;31.40;66.50
36442;DHT22;64346;50.820;16.274;2023-07-30T10:11:22;31.40;67.40
36442;DHT22;64346;50.820;16.274;2023-07-30T10:13:51;31.40;67.60
36442;DHT22;64346;50.820;16.274;2023-07-30T10:16:21;31.30;66.90
36442;DHT22;64346;50.820;16.274;2023-07-30T10:19:04;30.90;67.00
36442;DHT22;64346;50.820;16.274;2023-07-30T10:21:49;30.20;67.60
36442;DHT22;64346;50.820;16.274;2023-07-30T10:24:17;29.80;68.20
36442;DHT22;64346;50.820;16.274;2023-07-30T10:26:47;29.50;69.00
36442;DHT22;64346;50.820;16.274;2023-07-30T10:29:17;29.20;69.30
36442;DHT22;64346;50.820;16.274;2023-07-30T10:31:55;29.60;69.30
36442;DHT22;64346;50.820;16.274;2023-07-30T10:34:42;29.40;68.00
36442;DHT22;64346;50.820;16.274;2023-07-30T10:37:10;29.10;69.70
36442;DHT22;64346;50.820;16.274;2023-07-30T10:39:40;29.30;69.30
36442;DHT22;64346;50.820;16.274;2023-07-30T10:42:10;29.40;69.50
36442;DHT22;64346;50.820;16.274;2023-07-30T10:44:43;29.20;70.00
36442;DHT22;64346;50.820;16.274;2023-07-30T10:47:11;29.00;70.60
36442;DHT22;64346;50.820;16.274;2023-07-30T10:50:01;28.80;72.00
36442;DHT22;64346;50.820;16.274;2023-07-30T10:52:29;28.40;72.60
36442;DHT22;64346;50.820;16.274;2023-07-30T10:55:02;28.00;74.40
36442;DHT22;64346;50.820;16.274;2023-07-30T10:57:34;27.40;76.30
36442;DHT22;64346;50.820;16.274;2023-07-30T11:00:02;26.90;79.40
36442;DHT22;64346;50.820;16.274;2023-07-30T11:02:30;26.40;82.40
36442;DHT22;64346;50.820;16.274;2023-07-30T11:05:11;26.00;85.80
36442;DHT22;64346;50.820;16.274;2023-07-30T11:07:39;25.60;90.20
36442;DHT22;64346;50.820;16.274;2023-07-30T11:10:08;25.10;92.50
36442;DHT22;64346;50.820;16.274;2023-07-30T11:12:41;24.60;95.40
36442;DHT22;64346;50.820;16.274;2023-07-30T11:15:10;24.20;99.90
36442;DHT22;64346;50.820;16.274;2023-07-30T11:17:38;23.90;99.90
36442;DHT22;64346;50.820;16.274;2023-07-30T11:20:12;23.50;99.90
36442;DHT22;64346;50.820;16.274;2023-07-30T11:22:48;23.20;99.90
36442;DHT22;64346;50.820;16.274;2023-07-30T11:25:19;22.90;99.90
36442;DHT22;64346;50.820;16.274;2023-07-30T11:27:47;22.60;99.90
36442;DHT22;64346;50.820;16.274;2023-07-30T11:30:15;22.40;99.90
36442;DHT22;64346;50.820;16.274;2023-07-30T11:32:43;22.10;99.90
36442;DHT22;64346;50.820;16.274;2023-07-30T11:35:17;21.90;99.90
36442;DHT22;64346;50.820;16.274;2023-07-30T11:37:47;21.70;99.90
36442;DHT22;64346;50.820;16.274;2023-07-30T11:40:14;21.50;99.90
36442;DHT22;64346;50.820;16.274;2023-07-30T11:42:44;21.40;99.90
36442;DHT22;64346;50.820;16.274;2023-07-30T11:45:26;21.40;99.90
36442;DHT22;64346;50.820;16.274;2023-07-30T11:47:53;21.30;99.90
36442;DHT22;64346;50.820;16.274;2023-07-30T11:50:21;21.40;99.90
36442;DHT22;64346;50.820;16.274;2023-07-30T11:52:53;21.50;99.90
36442;DHT22;64346;50.820;16.274;2023-07-30T11:55:23;21.50;99.90
36442;DHT22;64346;50.820;16.274;2023-07-30T11:58:00;21.50;99.90
36442;DHT22;64346;50.820;16.274;2023-07-30T12:00:27;21.70;99.90
36442;DHT22;64346;50.820;16.274;2023-07-30T12:02:55;21.80;99.90
36442;DHT22;64346;50.820;16.274;2023-07-30T12:05:35;22.10;99.90
36442;DHT22;64346;50.820;16.274;2023-07-30T12:08:03;22.50;99.90
36442;DHT22;64346;50.820;16.274;2023-07-30T12:10:44;22.80;99.90
36442;DHT22;64346;50.820;16.274;2023-07-30T12:13:20;23.00;99.90
36442;DHT22;64346;50.820;16.274;2023-07-30T12:15:54;23.20;99.90
36442;DHT22;64346;50.820;16.274;2023-07-30T12:18:28;23.30;99.90
36442;DHT22;64346;50.820;16.274;2023-07-30T12:20:55;23.60;99.90
36442;DHT22;64346;50.820;16.274;2023-07-30T12:23:22;24.00;99.90
36442;DHT22;64346;50.820;16.274;2023-07-30T12:25:53;24.30;99.90
36442;DHT22;64346;50.820;16.274;2023-07-30T12:28:23;24.20;99.90
36442;DHT22;64346;50.820;16.274;2023-07-30T12:30:50;24.30;99.90
36442;DHT22;64346;50.820;16.274;2023-07-30T12:33:20;24.30;99.90
36442;DHT22;64346;50.820;16.274;2023-07-30T12:35:50;24.30;99.90
36442;DHT22;64346;50.820;16.274;2023-07-30T12:38:22;24.10;99.90
36442;DHT22;64346;50.820;16.274;2023-07-30T12:40:49;24.00;99.90
36442;DHT22;64346;50.820;16.274;2023-07-30T12:43:17;24.10;99.90
36442;DHT22;64346;50.820;16.274;2023-07-30T12:45:44;24.10;99.90
36442;DHT22;64346;50.820;16.274;2023-07-30T12:48:12;24.10;99.90
36442;DHT22;64346;50.820;16.274;2023-07-30T12:50:39;23.90;99.90
36442;DHT22;64346;50.820;16.274;2023-07-30T12:53:07;24.00;99.90
36442;DHT22;64346;50.820;16.274;2023-07-30T12:55:34;23.80;99.90
36442;DHT22;64346;50.820;16.274;2023-07-30T12:58:01;23.70;99.90
36442;DHT22;64346;50.820;16.274;2023-07-30T13:00:28;23.70;99.90
36442;DHT22;64346;50.820;16.274;2023-07-30T13:02:58;23.60;99.90
36442;DHT22;64346;50.820;16.274;2023-07-30T13:05:31;23.30;99.90
36442;DHT22;64346;50.820;16.274;2023-07-30T13:07:58;23.00;99.90
36442;DHT22;64346;50.820;16.274;2023-07-30T13:10:31;22.90;99.90
36442;DHT22;64346;50.820;16.274;2023-07-30T13:12:59;22.90;99.90
36442;DHT22;64346;50.820;16.274;2023-07-30T13:15:28;23.00;99.90
36442;DHT22;64346;50.820;16.274;2023-07-30T13:17:56;23.00;99.90
36442;DHT22;64346;50.820;16.274;2023-07-30T13:20:23;22.90;99.90
36442;DHT22;64346;50.820;16.274;2023-07-30T13:22:51;22.90;99.90
36442;DHT22;64346;50.820;16.274;2023-07-30T13:25:21;23.10;99.90
36442;DHT22;64346;50.820;16.274;2023-07-30T13:27:50;23.10;99.90
36442;DHT22;64346;50.820;16.274;2023-07-30T13:30:18;23.10;99.90
36442;DHT22;64346;50.820;16.274;2023-07-30T13:32:48;23.10;99.90
36442;DHT22;64346;50.820;16.274;2023-07-30T13:35:15;23.20;99.90
36442;DHT22;64346;50.820;16.274;2023-07-30T13:37:43;23.10;99.90
36442;DHT22;64346;50.820;16.274;2023-07-30T13:40:10;23.10;99.90
36442;DHT22;64346;50.820;16.274;2023-07-30T13:42:39;22.80;99.90
36442;DHT22;64346;50.820;16.274;2023-07-30T13:45:09;22.80;99.90
36442;DHT22;64346;50.820;16.274;2023-07-30T13:47:37;22.80;99.90
36442;DHT22;64346;50.820;16.274;2023-07-30T13:50:04;22.80;99.90
36442;DHT22;64346;50.820;16.274;2023-07-30T13:52:34;23.00;99.90
36442;DHT22;64346;50.820;16.274;2023-07-30T13:55:04;23.10;99.90
36442;DHT22;64346;50.820;16.274;2023-07-30T13:57:34;23.10;99.90
36442;DHT22;64346;50.820;16.274;2023-07-30T14:00:03;23.10;99.90
36442;DHT22;64346;50.820;16.274;2023-07-30T14:02:36;23.10;99.90
36442;DHT22;64346;50.820;16.274;2023-07-30T14:05:06;23.00;99.90
36442;DHT22;64346;50.820;16.274;2023-07-30T14:07:35;23.10;99.90
36442;DHT22;64346;50.820;16.274;2023-07-30T14:10:03;23.20;99.90
36442;DHT22;64346;50.820;16.274;2023-07-30T14:12:33;23.20;99.90
36442;DHT22;64346;50.820;16.274;2023-07-30T14:15:01;23.20;99.90
36442;DHT22;64346;50.820;16.274;2023-07-30T14:17:29;23.30;99.90
36442;DHT22;64346;50.820;16.274;2023-07-30T14:19:56;23.40;99.90
36442;DHT22;64346;50.820;16.274;2023-07-30T14:22:23;23.60;99.90
36442;DHT22;64346;50.820;16.274;2023-07-30T14:24:53;23.80;99.90
36442;DHT22;64346;50.820;16.274;2023-07-30T14:27:22;24.00;99.90
36442;DHT22;64346;50.820;16.274;2023-07-30T14:29:53;23.80;99.90
36442;DHT22;64346;50.820;16.274;2023-07-30T14:32:26;23.70;99.90
36442;DHT22;64346;50.820;16.274;2023-07-30T14:34:53;23.60;99.90
36442;DHT22;64346;50.820;16.274;2023-07-30T14:37:20;23.60;99.90
36442;DHT22;64346;50.820;16.274;2023-07-30T14:39:50;23.40;99.90
36442;DHT22;64346;50.820;16.274;2023-07-30T14:42:17;23.30;99.90
36442;DHT22;64346;50.820;16.274;2023-07-30T14:44:44;23.20;99.90
36442;DHT22;64346;50.820;16.274;2023-07-30T14:47:12;23.20;99.90
36442;DHT22;64346;50.820;16.274;2023-07-30T14:49:39;23.10;99.90
36442;DHT22;64346;50.820;16.274;2023-07-30T14:52:07;23.00;99.90
36442;DHT22;64346;50.820;16.274;2023-07-30T14:54:34;23.10;99.90
36442;DHT22;64346;50.820;16.274;2023-07-30T14:57:09;23.10;99.90
36442;DHT22;64346;50.820;16.274;2023-07-30T14:59:36;23.10;99.90
36442;DHT22;64346;50.820;16.274;2023-07-30T15:02:04;23.10;99.90
36442;DHT22;64346;50.820;16.274;2023-07-30T15:04:31;23.10;99.90
36442;DHT22;64346;50.820;16.274;2023-07-30T15:06:59;23.10;99.90
36442;DHT22;64346;50.820;16.274;2023-07-30T15:09:26;23.10;99.90
36442;DHT22;64346;50.820;16.274;2023-07-30T15:11:56;23.00;99.90
36442;DHT22;64346;50.820;16.274;2023-07-30T15:14:23;23.00;99.90
36442;DHT22;64346;50.820;16.274;2023-07-30T15:16:53;23.00;99.90
36442;DHT22;64346;50.820;16.274;2023-07-30T15:19:21;22.90;99.90
36442;DHT22;64346;50.820;16.274;2023-07-30T15:21:48;22.80;99.90
36442;DHT22;64346;50.820;16.274;2023-07-30T15:24:19;22.70;99.90
36442;DHT22;64346;50.820;16.274;2023-07-30T15:26:46;22.70;99.90